createdAt,value
2023-09-12T00:00:14.871Z,18.00
2023-09-12T00:03:22.625Z,17.98
2023-09-12T00:06:25.999Z,17.84
2023-09-12T00:09:29.195Z,17.83
2023-09-12T00:12:32.065Z,17.83
2023-09-12T00:15:34.552Z,17.65
2023-09-12T00:18:37.388Z,17.66
2023-09-12T00:21:39.967Z,17.66
2023-09-12T00:24:42.538Z,17.59
2023-09-12T00:27:45.093Z,17.54
2023-09-12T00:30:47.812Z,17.57
2023-09-12T00:33:50.331Z,17.54
2023-09-12T00:36:52.889Z,17.46
2023-09-12T00:39:55.517Z,17.43
2023-09-12T00:42:59.774Z,17.39
2023-09-12T00:46:02.257Z,17.36
2023-09-12T00:49:07.460Z,17.34
2023-09-12T00:52:10.670Z,17.33
2023-09-12T00:55:13.217Z,17.32
2023-09-12T00:58:16.662Z,17.21
2023-09-12T01:01:22.460Z,17.21
2023-09-12T01:04:34.892Z,17.15
2023-09-12T01:07:40.291Z,17.09
2023-09-12T01:10:47.143Z,17.15
2023-09-12T01:13:49.702Z,17.09
2023-09-12T01:16:52.286Z,17.01
2023-09-12T01:19:55.238Z,16.99
2023-09-12T01:23:18.921Z,16.94
2023-09-12T01:26:42.092Z,16.90
2023-09-12T01:29:47.110Z,16.84
2023-09-12T01:32:50.872Z,16.85
2023-09-12T01:35:53.475Z,16.80
2023-09-12T01:38:56.241Z,16.75
2023-09-12T01:42:00.826Z,16.76
2023-09-12T01:45:04.913Z,16.66
2023-09-12T01:48:09.217Z,16.65
2023-09-12T01:51:12.912Z,16.60
2023-09-12T01:54:17.263Z,16.56
2023-09-12T01:57:23.718Z,16.54
2023-09-12T02:00:26.328Z,16.53
2023-09-12T02:03:29.358Z,16.51
2023-09-12T02:06:32.696Z,16.52
2023-09-12T02:09:35.306Z,16.47
2023-09-12T02:12:38.478Z,16.43
2023-09-12T02:15:41.217Z,16.43
2023-09-12T02:18:44.312Z,16.39
2023-09-12T02:21:47.039Z,16.43
2023-09-12T02:24:50.129Z,16.45
2023-09-12T02:27:52.695Z,16.33
2023-09-12T02:30:55.253Z,16.34
2023-09-12T02:33:57.757Z,16.32
2023-09-12T02:37:00.417Z,16.26
2023-09-12T02:40:06.398Z,16.17
2023-09-12T02:43:08.928Z,16.19
2023-09-12T02:46:11.479Z,16.24
2023-09-12T02:49:14.095Z,16.21
2023-09-12T02:52:16.600Z,16.18
2023-09-12T02:55:19.261Z,16.15
2023-09-12T02:58:22.404Z,16.07
2023-09-12T03:01:29.052Z,16.08
2023-09-12T03:04:36.261Z,16.07
2023-09-12T03:07:38.892Z,16.05
2023-09-12T03:10:41.423Z,16.03
2023-09-12T03:13:43.932Z,16.04
2023-09-12T03:16:46.625Z,16.07
2023-09-12T03:19:49.217Z,16.10
2023-09-12T03:22:51.784Z,16.07
2023-09-12T03:25:54.371Z,15.99
2023-09-12T03:28:57.099Z,15.93
2023-09-12T03:31:59.666Z,15.91
2023-09-12T03:35:02.215Z,15.85
2023-09-12T03:38:04.880Z,15.86
2023-09-12T03:41:07.627Z,15.80
2023-09-12T03:44:10.205Z,15.70
2023-09-12T03:47:14.133Z,15.64
2023-09-12T03:50:16.745Z,15.64
2023-09-12T03:53:19.266Z,15.60
2023-09-12T03:56:21.894Z,15.64
2023-09-12T03:59:24.583Z,15.61
2023-09-12T04:02:27.057Z,15.62
2023-09-12T04:05:29.690Z,15.62
2023-09-12T04:08:33.535Z,15.61
2023-09-12T04:11:46.196Z,15.62
2023-09-12T04:14:54.145Z,15.60
2023-09-12T04:17:56.936Z,15.47
2023-09-12T04:20:59.517Z,15.49
2023-09-12T04:24:02.185Z,15.44
2023-09-12T04:27:05.173Z,15.45
2023-09-12T04:30:10.078Z,15.49
2023-09-12T04:33:12.731Z,15.50
2023-09-12T04:36:15.283Z,15.53
2023-09-12T04:39:17.953Z,15.57
2023-09-12T04:42:20.651Z,15.61
2023-09-12T04:45:23.663Z,15.73
2023-09-12T04:48:26.458Z,15.73
2023-09-12T04:51:29.111Z,15.71
2023-09-12T04:54:31.687Z,15.75
2023-09-12T04:57:34.504Z,15.83
2023-09-12T05:00:37.226Z,15.90
2023-09-12T05:03:39.898Z,16.03
2023-09-12T05:06:43.209Z,16.07
2023-09-12T05:09:46.031Z,16.10
2023-09-12T05:12:48.706Z,16.23
2023-09-12T05:15:51.405Z,16.41
2023-09-12T05:18:54.432Z,16.51
2023-09-12T05:21:57.065Z,16.60
2023-09-12T05:24:59.676Z,16.66
2023-09-12T05:28:02.234Z,16.86
2023-09-12T05:31:05.026Z,17.02
2023-09-12T05:34:08.910Z,17.09
2023-09-12T05:37:11.492Z,17.18
2023-09-12T05:40:14.256Z,17.24
2023-09-12T05:43:20.257Z,17.27
2023-09-12T05:46:23.414Z,17.41
2023-09-12T05:49:26.156Z,17.38
2023-09-12T05:52:28.686Z,17.48
2023-09-12T05:55:31.679Z,17.51
2023-09-12T05:58:35.568Z,17.66
2023-09-12T06:01:40.408Z,17.67
2023-09-12T06:04:43.234Z,17.76
2023-09-12T06:07:48.110Z,17.92
2023-09-12T06:10:54.792Z,18.10
2023-09-12T06:13:57.353Z,18.24
2023-09-12T06:17:00.139Z,18.35
2023-09-12T06:20:04.845Z,18.42
2023-09-12T06:23:07.506Z,18.53
2023-09-12T06:26:10.030Z,18.69
2023-09-12T06:29:12.592Z,18.80
2023-09-12T06:32:16.460Z,18.95
2023-09-12T06:35:18.960Z,19.12
2023-09-12T06:38:23.479Z,19.27
2023-09-12T06:41:28.685Z,19.43
2023-09-12T06:44:31.335Z,19.55
2023-09-12T06:47:34.109Z,19.73
2023-09-12T06:50:39.146Z,19.84
2023-09-12T06:53:41.975Z,20.07
2023-09-12T06:56:44.864Z,20.25
2023-09-12T06:59:49.272Z,20.39
2023-09-12T07:02:52.220Z,20.48
2023-09-12T07:05:54.935Z,20.58
2023-09-12T07:08:58.274Z,20.72
2023-09-12T07:12:00.846Z,20.78
2023-09-12T07:15:03.727Z,20.88
2023-09-12T07:18:07.846Z,21.07
2023-09-12T07:21:12.515Z,21.12
2023-09-12T07:24:15.153Z,21.21
2023-09-12T07:27:17.779Z,21.40
2023-09-12T07:30:21.011Z,21.68
2023-09-12T07:33:24.269Z,21.85
2023-09-12T07:36:27.202Z,21.91
2023-09-12T07:39:31.093Z,22.10
2023-09-12T07:42:34.366Z,22.17
2023-09-12T07:45:39.875Z,22.38
2023-09-12T07:48:42.640Z,22.43
2023-09-12T07:51:45.660Z,22.64
2023-09-12T07:54:48.549Z,22.91
2023-09-12T07:57:51.284Z,22.97
2023-09-12T08:00:53.873Z,23.14
2023-09-12T08:03:56.622Z,23.19
2023-09-12T08:07:04.547Z,23.28
2023-09-12T08:10:08.390Z,23.42
2023-09-12T08:13:10.960Z,23.41
2023-09-12T08:16:13.722Z,23.56
2023-09-12T08:19:18.566Z,23.68
2023-09-12T08:22:23.627Z,23.72
2023-09-12T08:25:28.370Z,23.86
2023-09-12T08:28:31.237Z,24.11
2023-09-12T08:31:34.063Z,24.34
2023-09-12T08:34:37.017Z,24.55
2023-09-12T08:37:41.537Z,24.66
2023-09-12T08:40:52.622Z,24.85
2023-09-12T08:43:57.173Z,24.98
2023-09-12T08:47:01.898Z,24.99
2023-09-12T08:50:06.094Z,25.14
2023-09-12T08:53:10.247Z,25.26
2023-09-12T08:56:13.071Z,25.34
2023-09-12T08:59:16.795Z,25.53
2023-09-12T09:02:20.043Z,25.60
2023-09-12T09:05:24.355Z,25.65
2023-09-12T09:08:28.100Z,25.72
2023-09-12T09:11:31.975Z,25.76
2023-09-12T09:14:34.814Z,25.93
2023-09-12T09:17:41.091Z,26.12
2023-09-12T09:20:50.853Z,26.18
2023-09-12T09:23:55.002Z,26.27
2023-09-12T09:27:01.703Z,26.29
2023-09-12T09:30:04.613Z,26.45
2023-09-12T09:33:07.705Z,26.52
2023-09-12T09:36:10.273Z,26.67
2023-09-12T09:39:15.267Z,26.88
2023-09-12T09:42:17.981Z,26.96
2023-09-12T09:45:21.472Z,27.15
2023-09-12T09:48:28.460Z,27.23
2023-09-12T09:51:36.670Z,27.38
2023-09-12T09:54:48.951Z,27.58
2023-09-12T09:57:54.287Z,27.69
2023-09-12T10:00:57.268Z,27.79
2023-09-12T10:04:02.186Z,27.93
2023-09-12T10:07:07.446Z,27.99
2023-09-12T10:10:12.140Z,28.15
2023-09-12T10:13:16.235Z,28.29
2023-09-12T10:16:20.968Z,28.31
2023-09-12T10:19:26.766Z,28.41
2023-09-12T10:22:35.946Z,28.53
2023-09-12T10:25:39.703Z,28.51
2023-09-12T10:28:44.602Z,28.59
2023-09-12T10:31:48.636Z,28.66
2023-09-12T10:34:54.866Z,28.80
2023-09-12T10:38:01.440Z,29.13
2023-09-12T10:41:06.429Z,29.35
2023-09-12T10:44:17.507Z,29.22
2023-09-12T10:47:20.769Z,29.07
2023-09-12T10:50:23.574Z,29.14
2023-09-12T10:53:29.953Z,29.07
2023-09-12T10:56:33.720Z,29.46
2023-09-12T10:59:39.112Z,29.61
2023-09-12T11:02:43.272Z,29.89
2023-09-12T11:05:54.413Z,29.90
2023-09-12T11:09:18.758Z,29.99
2023-09-12T11:12:37.244Z,30.04
2023-09-12T11:16:13.285Z,30.27
2023-09-12T11:19:21.522Z,30.25
2023-09-12T11:22:27.010Z,30.38
2023-09-12T11:25:29.657Z,30.49
2023-09-12T11:28:32.671Z,30.54
2023-09-12T11:31:35.474Z,30.22
2023-09-12T11:34:41.694Z,30.44
2023-09-12T11:37:56.462Z,30.56
2023-09-12T11:41:00.462Z,30.87
2023-09-12T11:44:05.439Z,30.95
2023-09-12T11:47:12.113Z,31.08
2023-09-12T11:50:34.886Z,31.37
2023-09-12T11:53:37.517Z,31.49
2023-09-12T11:56:40.316Z,31.33
2023-09-12T11:59:50.094Z,31.05
2023-09-12T12:02:53.396Z,30.86
2023-09-12T12:05:57.106Z,31.14
2023-09-12T12:09:00.252Z,31.37
2023-09-12T12:12:15.616Z,31.62
2023-09-12T12:15:18.373Z,32.07
2023-09-12T12:18:21.073Z,32.56
2023-09-12T12:21:23.801Z,32.81
2023-09-12T12:24:26.546Z,33.24
2023-09-12T12:27:29.454Z,33.47
2023-09-12T12:30:34.550Z,34.06
2023-09-12T12:34:35.500Z,34.10
2023-09-12T12:37:00.152Z,34.39
2023-09-12T12:40:07.541Z,33.83
2023-09-12T12:43:20.925Z,34.09
2023-09-12T12:46:23.569Z,34.64
2023-09-12T12:49:26.455Z,34.84
2023-09-12T12:52:29.024Z,34.95
2023-09-12T12:55:31.660Z,35.57
2023-09-12T12:58:36.167Z,35.99
2023-09-12T13:01:40.416Z,35.93
2023-09-12T13:04:43.117Z,36.27
2023-09-12T13:07:45.823Z,36.68
2023-09-12T13:10:48.437Z,35.34
2023-09-12T13:13:51.186Z,35.53
2023-09-12T13:16:53.919Z,35.96
2023-09-12T13:19:56.499Z,36.31
2023-09-12T13:22:59.034Z,36.16
2023-09-12T13:26:01.676Z,36.71
2023-09-12T13:29:04.294Z,36.17
2023-09-12T13:32:07.307Z,36.00
2023-09-12T13:35:09.872Z,36.04
2023-09-12T13:38:12.944Z,37.11
2023-09-12T13:41:15.521Z,36.75
2023-09-12T13:44:18.901Z,36.33
2023-09-12T13:47:24.348Z,36.28
2023-09-12T13:50:30.906Z,36.71
2023-09-12T13:53:33.402Z,36.83
2023-09-12T13:56:36.899Z,36.97
2023-09-12T13:59:44.968Z,37.11
2023-09-12T14:02:50.257Z,37.02
2023-09-12T14:05:53.401Z,37.49
2023-09-12T14:08:57.188Z,37.39
2023-09-12T14:12:00.334Z,37.65
2023-09-12T14:15:08.647Z,38.39
2023-09-12T14:18:13.484Z,38.40
2023-09-12T14:21:17.526Z,38.06
2023-09-12T14:24:21.690Z,38.43
2023-09-12T14:27:27.119Z,38.21
2023-09-12T14:30:36.547Z,38.37
2023-09-12T14:33:39.126Z,38.55
2023-09-12T14:36:41.744Z,38.21
2023-09-12T14:39:44.643Z,37.88
2023-09-12T14:42:48.011Z,37.55
2023-09-12T14:45:50.747Z,37.78
2023-09-12T14:49:00.733Z,37.29
2023-09-12T14:52:14.280Z,36.48
2023-09-12T14:55:23.153Z,36.61
2023-09-12T14:58:25.730Z,36.71
2023-09-12T15:01:28.401Z,35.77
2023-09-12T15:04:31.314Z,35.35
2023-09-12T15:07:34.799Z,35.43
2023-09-12T15:10:37.262Z,35.45
2023-09-12T15:13:42.307Z,35.50
2023-09-12T15:16:45.322Z,35.64
2023-09-12T15:19:48.046Z,35.77
2023-09-12T15:22:50.631Z,36.04
2023-09-12T15:25:53.368Z,34.92
2023-09-12T15:28:56.026Z,34.30
2023-09-12T15:31:59.643Z,34.06
2023-09-12T15:35:04.156Z,33.50
2023-09-12T15:38:07.201Z,33.23
2023-09-12T15:41:09.804Z,33.05
2023-09-12T15:44:16.254Z,32.97
2023-09-12T15:47:20.848Z,33.02
2023-09-12T15:50:23.385Z,33.60
2023-09-12T15:53:26.285Z,33.64
2023-09-12T15:56:28.846Z,33.90
2023-09-12T15:59:32.635Z,33.52
2023-09-12T16:02:39.271Z,33.27
2023-09-12T16:05:41.867Z,33.12
2023-09-12T16:08:44.551Z,32.84
2023-09-12T16:11:47.135Z,32.24
2023-09-12T16:14:49.640Z,32.16
2023-09-12T16:17:52.162Z,31.86
2023-09-12T16:20:54.804Z,31.52
2023-09-12T16:23:59.860Z,31.11
2023-09-12T16:27:02.360Z,30.56
2023-09-12T16:30:09.392Z,30.20
2023-09-12T16:33:12.920Z,29.96
2023-09-12T16:36:15.472Z,29.47
2023-09-12T16:39:17.999Z,29.05
2023-09-12T16:42:20.575Z,28.77
2023-09-12T16:45:23.114Z,28.50
2023-09-12T16:48:25.680Z,28.29
2023-09-12T16:51:28.451Z,28.10
2023-09-12T16:54:31.437Z,27.77
2023-09-12T16:57:34.038Z,27.59
2023-09-12T17:00:36.625Z,27.45
2023-09-12T17:03:39.821Z,27.16
2023-09-12T17:06:44.670Z,26.90
2023-09-12T17:09:48.245Z,26.66
2023-09-12T17:12:50.764Z,26.45
2023-09-12T17:15:53.530Z,26.24
2023-09-12T17:18:56.171Z,26.06
2023-09-12T17:21:58.808Z,25.91
2023-09-12T17:25:01.332Z,25.79
2023-09-12T17:28:04.165Z,25.65
2023-09-12T17:31:06.777Z,25.50
2023-09-12T17:34:09.714Z,25.34
2023-09-12T17:37:13.143Z,25.21
2023-09-12T17:40:15.834Z,25.07
2023-09-12T17:43:18.290Z,24.96
2023-09-12T17:46:20.788Z,24.89
2023-09-12T17:49:23.305Z,24.75
2023-09-12T17:52:25.839Z,24.52
2023-09-12T17:55:28.555Z,24.37
2023-09-12T17:58:31.044Z,24.28
2023-09-12T18:01:33.842Z,24.18
2023-09-12T18:04:36.447Z,24.07
2023-09-12T18:07:39.105Z,23.94
2023-09-12T18:10:41.622Z,23.80
2023-09-12T18:13:47.504Z,23.70
2023-09-12T18:16:50.637Z,23.58
2023-09-12T18:19:54.014Z,23.51
2023-09-12T18:22:56.642Z,23.43
2023-09-12T18:26:03.278Z,23.31
2023-09-12T18:29:05.977Z,23.24
2023-09-12T18:32:08.714Z,23.16
2023-09-12T18:35:11.239Z,23.01
2023-09-12T18:38:13.844Z,22.99
2023-09-12T18:41:16.901Z,22.98
2023-09-12T18:44:20.268Z,22.90
2023-09-12T18:47:22.944Z,22.87
2023-09-12T18:50:26.624Z,22.79
2023-09-12T18:53:29.296Z,22.67
2023-09-12T18:56:32.111Z,22.67
2023-09-12T18:59:34.666Z,22.62
2023-09-12T19:02:38.995Z,22.60
2023-09-12T19:05:44.303Z,22.57
2023-09-12T19:08:47.070Z,22.55
2023-09-12T19:11:50.456Z,22.34
2023-09-12T19:14:53.574Z,22.22
2023-09-12T19:17:56.421Z,22.14
2023-09-12T19:20:59.123Z,22.03
2023-09-12T19:24:01.865Z,21.96
2023-09-12T19:27:04.737Z,21.85
2023-09-12T19:30:08.184Z,21.86
2023-09-12T19:33:11.354Z,21.82
2023-09-12T19:36:17.864Z,21.76
2023-09-12T19:39:20.520Z,21.72
2023-09-12T19:42:23.344Z,21.61
2023-09-12T19:45:26.219Z,21.53
2023-09-12T19:48:29.278Z,21.51
2023-09-12T19:51:31.843Z,21.51
2023-09-12T19:54:34.738Z,21.45
2023-09-12T19:57:37.323Z,21.40
2023-09-12T20:00:39.935Z,21.33
2023-09-12T20:03:42.877Z,21.22
2023-09-12T20:06:45.927Z,21.13
2023-09-12T20:09:48.529Z,21.15
2023-09-12T20:12:52.456Z,21.13
2023-09-12T20:15:55.238Z,21.08
2023-09-12T20:18:57.892Z,20.98
2023-09-12T20:22:00.734Z,20.94
2023-09-12T20:25:03.756Z,20.90
2023-09-12T20:28:06.629Z,20.89
2023-09-12T20:31:09.339Z,20.87
2023-09-12T20:34:11.806Z,20.85
2023-09-12T20:37:14.931Z,20.84
2023-09-12T20:40:17.587Z,20.81
2023-09-12T20:43:20.312Z,20.77
2023-09-12T20:46:22.862Z,20.79
2023-09-12T20:49:25.574Z,20.65
2023-09-12T20:52:28.068Z,20.53
2023-09-12T20:55:36.768Z,20.48
2023-09-12T20:58:39.238Z,20.41
2023-09-12T21:01:42.047Z,20.41
2023-09-12T21:04:45.950Z,20.38
2023-09-12T21:07:48.580Z,20.22
2023-09-12T21:10:51.113Z,20.13
2023-09-12T21:13:53.798Z,20.07
2023-09-12T21:16:56.455Z,20.00
2023-09-12T21:19:59.072Z,20.01
2023-09-12T21:23:03.905Z,20.00
2023-09-12T21:26:06.531Z,19.98
2023-09-12T21:29:09.035Z,19.92
2023-09-12T21:32:11.685Z,19.79
2023-09-12T21:35:19.906Z,19.68
2023-09-12T21:38:24.271Z,19.63
2023-09-12T21:41:26.779Z,19.60
2023-09-12T21:44:29.335Z,19.56
2023-09-12T21:47:32.335Z,19.45
2023-09-12T21:50:37.479Z,19.40
2023-09-12T21:53:40.248Z,19.34
2023-09-12T21:56:42.784Z,19.32
2023-09-12T21:59:45.234Z,19.30
2023-09-12T22:02:47.732Z,19.24
2023-09-12T22:05:50.589Z,19.22
2023-09-12T22:08:53.585Z,19.12
2023-09-12T22:11:56.122Z,19.07
2023-09-12T22:14:58.704Z,19.04
2023-09-12T22:18:01.142Z,18.94
2023-09-12T22:21:08.618Z,18.86
2023-09-12T22:24:11.044Z,18.83
2023-09-12T22:27:13.617Z,18.72
2023-09-12T22:30:16.176Z,18.63
2023-09-12T22:33:18.718Z,18.59
2023-09-12T22:36:21.279Z,18.52
2023-09-12T22:39:23.868Z,18.54
2023-09-12T22:42:26.402Z,18.52
2023-09-12T22:45:28.899Z,18.46
2023-09-12T22:48:31.469Z,18.49
2023-09-12T22:51:34.873Z,18.48
2023-09-12T22:54:37.410Z,18.39
2023-09-12T22:57:40.482Z,18.31
2023-09-12T23:00:43.449Z,18.26
2023-09-12T23:03:49.098Z,18.18
2023-09-12T23:06:52.614Z,18.17
2023-09-12T23:09:55.317Z,18.06
2023-09-12T23:12:57.895Z,18.05
2023-09-12T23:16:00.744Z,17.98
2023-09-12T23:19:03.909Z,17.97
2023-09-12T23:22:06.689Z,17.92
2023-09-12T23:25:10.972Z,17.86
2023-09-12T23:28:13.820Z,17.83
2023-09-12T23:31:16.497Z,17.81
2023-09-12T23:34:19.167Z,17.78
2023-09-12T23:37:23.553Z,17.74
2023-09-12T23:40:26.425Z,17.73
2023-09-12T23:43:29.439Z,17.72
2023-09-12T23:46:32.032Z,17.69
2023-09-12T23:49:34.638Z,17.66
2023-09-12T23:52:37.289Z,17.60
2023-09-12T23:55:39.911Z,17.56
2023-09-12T23:58:42.441Z,17.57
